Time;durP1;ratioP1;P1;durP2;ratioP2;P2;SDS_P1;SDS_P2;PMS_P1;PMS_P2;Temp;Humidity;BMP_temperature;BMP_pressure;BME280_temperature;BME280_humidity;BME280_pressure;Samples;Min_cycle;Max_cycle;Signal;HPM_P1;HPM_P2
2021/07/28 00:00:32;;;;;;;6.22;4.32;;;;;;;21.70;73.59;99303.84;4975262;28;20043;-68
2021/07/28 00:03:02;;;;;;;7.05;3.85;;;;;;;21.73;73.72;99297.66;4975437;28;20066;-68
2021/07/28 00:05:43;;;;;;;10.05;4.90;;;;;;;21.79;73.66;99302.50;4975247;28;20055;-68
2021/07/28 00:08:12;;;;;;;9.15;4.40;;;;;;;21.88;73.28;99307.28;4975548;28;20571;-68
2021/07/28 00:10:41;;;;;;;8.48;4.50;;;;;;;21.91;73.32;99307.94;4975144;28;20535;-68
2021/07/28 00:13:10;;;;;;;7.13;4.55;;;;;;;21.98;73.01;99303.25;4975489;28;20039;-68
2021/07/28 00:15:41;;;;;;;10.57;4.57;;;;;;;22.01;72.68;99305.69;4975142;28;20063;-68
2021/07/28 00:18:16;;;;;;;7.95;4.32;;;;;;;22.02;72.53;99302.19;4975401;28;20391;-68
2021/07/28 00:23:29;;;;;;;8.73;4.38;;;;;;;21.83;72.84;99293.66;4953724;28;20093;-68
2021/07/28 00:25:58;;;;;;;7.47;4.43;;;;;;;21.87;73.03;99287.38;4975286;28;20121;-68
2021/07/28 00:28:27;;;;;;;8.73;4.47;;;;;;;21.88;72.87;99283.88;4974950;28;20034;-68
2021/07/28 00:31:03;;;;;;;12.75;4.43;;;;;;;21.88;72.56;99291.69;4973769;28;20055;-68
2021/07/28 00:33:32;;;;;;;8.95;4.38;;;;;;;21.89;72.56;99285.53;4974599;28;20062;-68
2021/07/28 00:36:01;;;;;;;9.60;4.32;;;;;;;21.82;72.71;99286.75;4975190;28;20378;-68
2021/07/28 00:38:30;;;;;;;7.32;4.10;;;;;;;21.61;72.96;99282.69;4974044;28;20038;-68
2021/07/28 00:40:59;;;;;;;10.88;4.55;;;;;;;21.41;73.86;99275.91;4975085;28;20493;-68
2021/07/28 00:43:29;;;;;;;9.52;4.57;;;;;;;21.52;74.03;99273.63;4974818;28;20078;-68
2021/07/28 00:45:58;;;;;;;7.53;4.03;;;;;;;21.60;73.98;99270.59;4975379;28;20422;-68
2021/07/28 00:48:28;;;;;;;11.25;4.75;;;;;;;21.64;73.58;99273.00;4974721;28;20130;-67
2021/07/28 00:50:57;;;;;;;9.10;4.18;;;;;;;21.50;73.89;99262.47;4974950;28;20043;-67
2021/07/28 00:53:27;;;;;;;8.13;4.07;;;;;;;21.53;74.23;99264.06;4974627;28;20039;-67
2021/07/28 00:55:56;;;;;;;7.47;4.20;;;;;;;21.46;74.31;99262.69;4974717;28;20071;-67
2021/07/28 00:58:32;;;;;;;14.07;4.57;;;;;;;21.43;74.35;99257.69;4973576;28;20063;-67
2021/07/28 01:01:02;;;;;;;6.60;3.90;;;;;;;21.32;74.55;99272.06;4974650;28;20564;-67
2021/07/28 01:03:33;;;;;;;11.48;3.90;;;;;;;21.36;74.78;99257.97;4974628;28;20086;-67
2021/07/28 01:06:03;;;;;;;7.55;3.88;;;;;;;21.23;74.69;99262.13;4974858;28;20046;-67
2021/07/28 01:08:32;;;;;;;8.13;4.10;;;;;;;21.13;75.28;99271.31;4974614;28;20095;-67
2021/07/28 01:11:02;;;;;;;7.43;4.85;;;;;;;21.06;75.70;99259.56;4974495;28;20043;-68
2021/07/28 01:13:34;;;;;;;7.07;4.18;;;;;;;21.09;75.31;99263.75;4974807;28;20047;-68
2021/07/28 01:16:05;;;;;;;9.50;5.00;;;;;;;21.02;75.69;99260.56;4974839;28;20489;-67
2021/07/28 01:18:37;;;;;;;7.65;4.35;;;;;;;21.06;76.09;99254.34;4974607;28;20042;-69
2021/07/28 01:21:08;;;;;;;12.90;5.38;;;;;;;21.18;75.76;99258.94;4974406;28;20047;-67
2021/07/28 01:23:40;;;;;;;10.70;5.00;;;;;;;21.31;75.45;99254.78;4974441;28;20046;-67
2021/07/28 01:26:09;;;;;;;10.40;4.63;;;;;;;21.35;75.31;99251.09;4975026;28;20075;-68
2021/07/28 01:28:38;;;;;;;;;;;;;;;21.38;74.94;99250.94;4975131;28;20035;-67
2021/07/28 01:31:10;;;;;;;7.85;4.95;;;;;;;21.40;74.68;99257.84;4974508;28;19969;-67
2021/07/28 01:33:41;;;;;;;8.73;4.32;;;;;;;21.45;74.53;99261.03;4974003;28;20400;-67
2021/07/28 01:36:12;;;;;;;7.30;4.38;;;;;;;21.41;74.42;99254.31;4974693;28;20047;-67
2021/07/28 01:38:42;;;;;;;6.10;4.30;;;;;;;21.26;74.53;99266.31;4974937;28;20381;-69
2021/07/28 01:41:11;;;;;;;7.50;4.40;;;;;;;21.10;74.78;99271.44;4974606;28;20066;-68
2021/07/28 01:43:43;;;;;;;8.40;4.82;;;;;;;21.08;75.57;99272.44;4974214;28;20043;-68
2021/07/28 01:46:14;;;;;;;11.30;4.70;;;;;;;21.12;75.56;99263.56;4974194;28;20061;-67
2021/07/28 01:48:47;;;;;;;8.05;4.80;;;;;;;21.15;75.53;99264.28;4974966;28;20370;-67
2021/07/28 01:51:16;;;;;;;9.20;4.93;;;;;;;21.23;75.29;99267.34;4977993;28;20058;-67
2021/07/28 01:53:46;;;;;;;10.13;4.97;;;;;;;21.24;75.05;99266.41;4977939;28;20035;-69
2021/07/28 01:56:17;;;;;;;6.93;4.90;;;;;;;21.24;75.20;99261.19;4977948;28;20061;-69
2021/07/28 01:58:54;;;;;;;7.38;4.07;;;;;;;21.25;74.97;99256.84;4977927;28;20051;-69
2021/07/28 02:01:23;;;;;;;7.57;4.90;;;;;;;21.28;74.96;99254.13;4977890;28;20042;-68
2021/07/28 02:03:52;;;;;;;;;;;;;;;21.27;74.72;99262.81;4977813;28;20109;-67
2021/07/28 02:06:21;;;;;;;8.50;4.25;;;;;;;21.04;75.27;99256.13;4977999;28;19922;-67
2021/07/28 02:08:51;;;;;;;6.60;4.40;;;;;;;20.82;75.70;99250.34;4977699;28;20366;-68
2021/07/28 02:11:20;;;;;;;8.82;4.85;;;;;;;20.92;76.14;99250.75;4977376;28;20049;-67
2021/07/28 02:13:49;;;;;;;8.82;4.57;;;;;;;20.88;75.77;99256.97;4977263;28;20043;-67
2021/07/28 02:16:18;;;;;;;8.95;4.45;;;;;;;20.83;76.66;99257.19;4977276;28;20082;-68
2021/07/28 02:18:47;;;;;;;9.77;4.57;;;;;;;20.95;76.22;99255.75;4977327;28;20043;-69
2021/07/28 02:21:16;;;;;;;10.68;5.05;;;;;;;21.04;76.02;99250.13;4977482;28;20045;-69
2021/07/28 02:23:45;;;;;;;7.15;4.53;;;;;;;21.05;76.12;99257.84;4977414;28;20109;-67
2021/07/28 02:26:16;;;;;;;7.35;4.75;;;;;;;21.05;75.98;99265.63;4977033;28;20133;-68
2021/07/28 02:28:45;;;;;;;7.88;4.15;;;;;;;21.04;76.02;99261.31;4977373;28;20054;-67
2021/07/28 02:31:14;;;;;;;7.05;4.53;;;;;;;21.02;75.85;99257.97;4977265;28;20584;-68
2021/07/28 02:33:42;;;;;;;8.70;5.30;;;;;;;20.81;75.96;99256.44;4976649;28;20050;-67
2021/07/28 02:36:11;;;;;;;6.72;4.10;;;;;;;20.65;76.50;99258.09;4977198;28;20424;-68
2021/07/28 02:38:40;;;;;;;8.27;4.55;;;;;;;20.77;76.79;99257.50;4977131;28;20130;-67
2021/07/28 02:41:09;;;;;;;8.25;4.57;;;;;;;20.79;76.55;99260.88;4976764;28;20053;-67
2021/07/28 02:43:40;;;;;;;7.53;4.65;;;;;;;20.88;76.59;99264.75;4976717;28;20126;-67
2021/07/28 02:46:09;;;;;;;9.55;4.75;;;;;;;20.94;76.45;99249.75;4977014;28;20054;-67
2021/07/28 02:48:39;;;;;;;10.18;4.45;;;;;;;20.97;76.13;99253.94;4976646;28;20050;-67
2021/07/28 02:51:07;;;;;;;11.15;4.95;;;;;;;20.97;75.94;99251.34;4976503;28;20045;-67
2021/07/28 02:53:36;;;;;;;8.40;4.75;;;;;;;20.95;75.77;99254.00;4976492;28;20039;-67
2021/07/28 02:56:06;;;;;;;8.87;5.10;;;;;;;20.92;75.90;99251.59;4976848;28;20031;-67
2021/07/28 02:58:35;;;;;;;7.20;4.60;;;;;;;20.85;75.69;99237.19;4976406;28;20304;-67
2021/07/28 03:01:05;;;;;;;11.38;5.22;;;;;;;20.91;75.67;99244.69;4975625;28;20050;-67
2021/07/28 03:03:34;;;;;;;9.75;5.10;;;;;;;20.90;75.59;99240.41;4976651;28;20055;-67
2021/07/28 03:06:03;;;;;;;8.57;4.45;;;;;;;20.90;75.57;99243.00;4976363;28;20122;-67
2021/07/28 03:08:33;;;;;;;10.95;4.80;;;;;;;20.86;75.71;99236.31;4976260;28;20251;-67
2021/07/28 03:11:04;;;;;;;12.63;5.63;;;;;;;20.78;75.74;99233.25;4976213;28;20430;-68
2021/07/28 03:13:32;;;;;;;10.70;5.22;;;;;;;20.76;75.78;99234.22;4976135;28;20618;-67
2021/07/28 03:16:09;;;;;;;10.65;5.25;;;;;;;20.73;75.83;99230.06;4976720;28;20046;-67
2021/07/28 03:18:39;;;;;;;9.60;5.30;;;;;;;20.73;76.04;99243.84;4976454;28;20043;-67
2021/07/28 03:21:08;;;;;;;11.25;5.10;;;;;;;20.71;76.07;99240.47;4976341;28;20528;-67
2021/07/28 03:23:37;;;;;;;9.00;5.13;;;;;;;20.75;76.05;99246.38;4976018;28;20101;-67
2021/07/28 03:26:05;;;;;;;10.80;4.80;;;;;;;20.71;76.05;99255.19;4975873;28;20043;-67
2021/07/28 03:28:34;;;;;;;7.88;4.55;;;;;;;20.65;76.18;99252.91;4975818;28;20054;-67
2021/07/28 03:31:04;;;;;;;8.15;4.53;;;;;;;20.65;76.37;99248.59;4975779;28;20043;-68
2021/07/28 03:33:35;;;;;;;9.32;4.93;;;;;;;20.69;76.43;99247.50;4975955;28;20061;-67
2021/07/28 03:36:04;;;;;;;11.23;5.00;;;;;;;20.73;76.40;99240.44;4975746;28;20066;-67
2021/07/28 03:38:33;;;;;;;11.13;5.25;;;;;;;20.66;76.39;99247.66;4975927;28;20444;-67
2021/07/28 03:41:02;;;;;;;8.25;5.03;;;;;;;20.67;76.63;99235.53;4975643;28;20039;-67
2021/07/28 03:43:31;;;;;;;10.68;5.15;;;;;;;20.69;76.41;99241.47;4975972;28;20066;-67
2021/07/28 03:46:00;;;;;;;8.93;4.57;;;;;;;20.73;76.67;99240.44;4975869;28;20043;-68
2021/07/28 03:48:31;;;;;;;8.18;5.18;;;;;;;20.70;76.54;99246.59;4975544;28;20397;-68
2021/07/28 03:51:02;;;;;;;10.50;4.60;;;;;;;20.70;76.40;99235.38;4975494;28;20109;-69
2021/07/28 03:53:32;;;;;;;9.35;5.10;;;;;;;20.75;76.44;99243.78;4975384;28;20365;-67
2021/07/28 03:56:01;;;;;;;7.88;4.53;;;;;;;20.62;76.65;99242.69;4975415;28;20051;-67
2021/07/28 03:58:30;;;;;;;;;;;;;;;20.45;76.98;99240.91;4975786;28;20102;-68
2021/07/28 04:00:59;;;;;;;10.80;5.40;;;;;;;20.42;77.37;99242.81;4975627;28;20324;-68
2021/07/28 04:03:28;;;;;;;9.55;6.10;;;;;;;20.54;77.62;99244.81;4975481;28;20525;-67
2021/07/28 04:05:57;;;;;;;7.95;4.80;;;;;;;20.76;77.51;99239.41;4975136;28;20125;-68
2021/07/28 04:08:27;;;;;;;8.98;4.90;;;;;;;20.90;77.21;99237.81;4975519;28;20046;-68
2021/07/28 04:10:57;;;;;;;9.70;5.15;;;;;;;20.98;76.61;99246.06;4975184;28;20093;-67
2021/07/28 04:13:25;;;;;;;8.40;5.07;;;;;;;21.02;76.35;99239.81;4975282;28;20039;-67
2021/07/28 04:15:55;;;;;;;10.10;5.00;;;;;;;21.11;76.14;99242.00;4975145;28;20042;-67
2021/07/28 04:18:24;;;;;;;9.95;5.13;;;;;;;21.19;76.04;99229.44;4975677;28;20046;-67
2021/07/28 04:20:53;;;;;;;10.80;5.22;;;;;;;21.15;75.92;99232.28;4975656;28;20125;-68
2021/07/28 04:23:22;;;;;;;9.10;5.07;;;;;;;21.13;76.30;99229.78;4975335;28;20117;-67
2021/07/28 04:25:52;;;;;;;9.27;5.03;;;;;;;21.17;76.10;99230.44;4975286;28;20312;-67
2021/07/28 04:28:21;;;;;;;9.65;5.32;;;;;;;21.17;76.06;99231.28;4975268;28;20039;-67
2021/07/28 04:30:50;;;;;;;7.95;5.03;;;;;;;21.26;75.86;99236.00;4974914;28;20035;-68
2021/07/28 04:33:21;;;;;;;9.80;4.82;;;;;;;21.14;75.90;99226.25;4974566;28;20113;-67
2021/07/28 04:35:50;;;;;;;14.27;5.18;;;;;;;21.09;76.59;99236.00;4975436;28;20057;-67
2021/07/28 04:38:19;;;;;;;14.07;5.60;;;;;;;21.21;76.56;99238.00;4974955;28;20061;-67
2021/07/28 04:40:51;;;;;;;10.23;4.70;;;;;;;21.32;76.30;99235.69;4975137;28;20035;-67
2021/07/28 04:43:22;;;;;;;7.63;4.88;;;;;;;21.45;75.97;99240.25;4974881;28;20130;-67
2021/07/28 04:45:58;;;;;;;11.85;5.32;;;;;;;21.65;76.20;99232.25;4975359;28;20046;-67
2021/07/28 04:48:28;;;;;;;8.30;4.93;;;;;;;21.76;75.59;99235.94;4975069;28;20378;-67
2021/07/28 04:50:57;;;;;;;14.43;5.07;;;;;;;21.88;75.38;99229.31;4974909;28;20489;-67
2021/07/28 04:53:28;;;;;;;12.30;5.03;;;;;;;22.09;75.17;99230.75;4974532;28;20047;-67
2021/07/28 04:55:59;;;;;;;11.75;5.45;;;;;;;22.31;74.81;99233.00;4975037;28;20054;-68
2021/07/28 04:58:29;;;;;;;10.32;5.20;;;;;;;22.51;74.58;99228.34;4974993;28;20130;-67
2021/07/28 05:00:58;;;;;;;10.82;5.28;;;;;;;22.68;74.01;99223.06;4975005;28;20397;-67
2021/07/28 05:03:27;;;;;;;14.63;5.13;;;;;;;22.78;73.49;99222.53;4974580;28;20046;-67
2021/07/28 05:05:56;;;;;;;10.43;5.07;;;;;;;22.91;73.48;99228.72;4974561;28;20039;-67
2021/07/28 05:08:25;;;;;;;13.27;5.22;;;;;;;23.10;72.94;99227.53;4974486;28;20053;-67
2021/07/28 05:10:54;;;;;;;;;;;;;;;23.26;72.51;99224.84;4975067;28;20043;-67
2021/07/28 05:13:23;;;;;;;15.57;5.30;;;;;;;23.43;72.09;99227.31;4974707;28;19953;-67
2021/07/28 05:15:55;;;;;;;13.32;5.07;;;;;;;23.50;71.65;99223.41;4957270;28;20142;-67
2021/07/28 05:18:24;;;;;;;11.38;5.45;;;;;;;23.62;71.62;99225.28;4974558;28;20085;-67
2021/07/28 05:20:53;;;;;;;11.40;4.97;;;;;;;23.76;71.03;99224.41;4974761;28;20454;-67
2021/07/28 05:23:22;;;;;;;9.77;4.65;;;;;;;23.83;70.85;99223.94;4974953;28;20125;-67
2021/07/28 05:25:51;;;;;;;10.82;5.20;;;;;;;23.98;70.68;99225.63;4978205;28;20090;-67
2021/07/28 05:28:20;;;;;;;14.38;5.20;;;;;;;24.15;69.96;99223.75;4978374;28;20038;-68
2021/07/28 05:30:49;;;;;;;10.15;5.07;;;;;;;24.31;69.51;99227.03;4978082;28;20397;-67
2021/07/28 05:33:19;;;;;;;13.75;5.80;;;;;;;24.46;69.13;99228.66;4976606;28;20425;-67
2021/07/28 05:35:48;;;;;;;13.40;5.43;;;;;;;24.57;68.50;99234.06;4977966;28;20043;-68
2021/07/28 05:38:17;;;;;;;11.98;5.32;;;;;;;24.64;67.93;99235.31;4977863;28;20097;-67
2021/07/28 05:40:55;;;;;;;10.93;5.03;;;;;;;24.75;67.93;99226.78;4978234;28;20039;-67
2021/07/28 05:43:25;;;;;;;9.55;4.82;;;;;;;24.89;67.84;99232.78;4978457;28;20057;-68
2021/07/28 05:45:54;;;;;;;;;;;;;;;25.00;67.48;99232.91;4978304;28;20051;-68
2021/07/28 05:48:25;;;;;;;15.40;5.50;;;;;;;25.14;67.01;99235.44;4976616;28;19922;-67
2021/07/28 05:50:53;;;;;;;10.35;4.65;;;;;;;25.23;65.98;99224.38;4977763;28;20051;-67
2021/07/28 05:53:22;;;;;;;9.77;5.28;;;;;;;25.10;65.31;99239.19;4977670;28;20043;-67
2021/07/28 05:55:53;;;;;;;12.23;4.90;;;;;;;25.00;65.14;99237.31;4977632;28;20489;-67
2021/07/28 05:58:22;;;;;;;14.38;5.15;;;;;;;25.13;65.25;99233.78;4977934;28;20559;-67
2021/07/28 06:00:51;;;;;;;9.27;4.63;;;;;;;25.46;64.86;99229.84;4977382;28;20051;-68
2021/07/28 06:03:20;;;;;;;9.82;5.38;;;;;;;25.67;64.30;99223.13;4977470;28;20061;-67
2021/07/28 06:05:52;;;;;;;12.32;5.07;;;;;;;25.66;63.75;99231.91;4977742;28;20074;-68
2021/07/28 06:08:21;;;;;;;9.07;4.72;;;;;;;25.50;62.71;99220.84;4977383;28;20091;-67
2021/07/28 06:10:49;;;;;;;11.57;5.07;;;;;;;25.50;62.28;99226.06;4977271;28;20055;-68
2021/07/28 06:13:19;;;;;;;11.98;5.32;;;;;;;25.71;62.10;99225.44;4977227;28;20046;-68
2021/07/28 06:15:48;;;;;;;13.70;5.45;;;;;;;25.90;61.81;99224.97;4977156;28;20125;-67
2021/07/28 06:18:18;;;;;;;11.52;4.93;;;;;;;26.07;61.69;99232.44;4977148;28;20058;-67
2021/07/28 06:20:47;;;;;;;10.90;5.05;;;;;;;25.86;61.14;99239.22;4977094;28;20042;-67
2021/07/28 06:23:17;;;;;;;13.85;5.40;;;;;;;25.86;61.46;99239.22;4976896;28;20366;-67
2021/07/28 06:25:47;;;;;;;9.25;4.43;;;;;;;25.91;61.40;99239.72;4977397;28;20105;-67
2021/07/28 06:28:16;;;;;;;;;;;;;;;25.79;61.32;99243.19;4977746;28;20054;-66
2021/07/28 06:30:45;;;;;;;8.50;4.93;;;;;;;25.90;61.55;99238.88;4977446;28;20485;-67
2021/07/28 06:33:14;;;;;;;11.43;4.88;;;;;;;26.01;60.90;99238.09;4976767;28;20684;-68
2021/07/28 06:35:42;;;;;;;10.13;4.68;;;;;;;26.32;60.77;99245.47;4958303;28;20397;-68
2021/07/28 06:38:11;;;;;;;10.02;5.20;;;;;;;26.50;59.90;99246.78;4975967;28;20043;-68
2021/07/28 06:40:43;;;;;;;8.70;4.65;;;;;;;26.69;59.41;99245.41;4976789;28;20047;-67
2021/07/28 06:43:12;;;;;;;10.07;4.63;;;;;;;26.75;57.92;99239.72;4976779;28;20043;-67
2021/07/28 06:45:42;;;;;;;14.18;5.15;;;;;;;26.72;57.14;99248.66;4977052;28;20030;-67
2021/07/28 06:48:10;;;;;;;;;;;;;;;26.60;57.44;99253.00;4977641;28;20125;-67
2021/07/28 06:50:39;;;;;;;14.43;5.30;;;;;;;26.72;57.24;99245.19;4976929;28;19922;-67
2021/07/28 06:53:08;;;;;;;11.30;4.97;;;;;;;26.83;56.81;99255.72;4976526;28;20114;-68
2021/07/28 06:55:37;;;;;;;13.15;4.70;;;;;;;26.55;57.35;99254.28;4976747;28;20449;-66
2021/07/28 06:58:07;;;;;;;16.90;5.72;;;;;;;26.57;57.16;99258.47;4976764;28;20089;-67
2021/07/28 07:00:36;;;;;;;11.40;5.15;;;;;;;26.62;56.68;99260.75;4976618;28;20519;-66
2021/07/28 07:03:05;;;;;;;8.13;4.82;;;;;;;26.63;56.84;99256.34;4976237;28;20055;-66
2021/07/28 07:05:34;;;;;;;14.52;5.13;;;;;;;26.70;56.62;99254.94;4976064;28;20043;-67
2021/07/28 07:08:04;;;;;;;8.15;4.43;;;;;;;26.76;56.99;99257.97;4976532;28;20089;-68
2021/07/28 07:10:33;;;;;;;12.00;5.18;;;;;;;26.79;57.28;99257.75;4975979;28;20420;-67
2021/07/28 07:13:05;;;;;;;11.98;5.18;;;;;;;27.04;56.52;99256.78;4976223;28;20049;-68
2021/07/28 07:15:35;;;;;;;11.07;5.35;;;;;;;27.22;56.12;99265.88;4976045;28;20054;-68
2021/07/28 07:18:05;;;;;;;9.25;5.32;;;;;;;27.38;56.19;99257.72;4976349;28;20050;-67
2021/07/28 07:20:33;;;;;;;12.52;5.07;;;;;;;27.30;55.40;99253.03;4975944;28;20073;-67
2021/07/28 07:23:03;;;;;;;9.18;5.05;;;;;;;27.43;55.68;99251.16;4975901;28;20429;-67
2021/07/28 07:25:32;;;;;;;11.35;4.90;;;;;;;27.41;55.10;99250.44;4976288;28;20551;-68
2021/07/28 07:28:04;;;;;;;8.95;4.32;;;;;;;27.53;55.46;99249.50;4975832;28;20042;-68
2021/07/28 07:30:34;;;;;;;8.32;4.75;;;;;;;27.35;55.71;99240.41;4975883;28;20051;-67
2021/07/28 07:35:44;;;;;;;13.05;5.10;;;;;;;27.50;55.38;99239.25;4975753;28;20125;-67
2021/07/28 07:38:13;;;;;;;10.60;5.03;;;;;;;27.62;54.91;99246.16;4975717;28;20400;-68
2021/07/28 07:40:42;;;;;;;11.80;5.43;;;;;;;27.48;54.75;99246.41;4975428;28;20053;-69
2021/07/28 07:43:12;;;;;;;10.00;5.07;;;;;;;27.61;54.56;99252.38;4975645;28;20146;-69
2021/07/28 07:45:43;;;;;;;;;;;;;;;27.80;54.47;99239.50;4975836;28;20454;-68
2021/07/28 07:48:13;;;;;;;10.57;5.30;;;;;;;27.93;54.09;99245.44;4975619;28;20292;-69
2021/07/28 07:50:42;;;;;;;10.57;5.50;;;;;;;28.09;54.08;99244.25;4975561;28;20051;-69
2021/07/28 07:53:12;;;;;;;8.45;4.85;;;;;;;28.06;53.90;99247.13;4975553;28;20043;-69
2021/07/28 07:55:41;;;;;;;12.30;5.05;;;;;;;28.19;53.92;99242.59;4975628;28;20126;-69
2021/07/28 07:58:10;;;;;;;9.35;5.13;;;;;;;28.20;53.28;99250.31;4975245;28;20094;-69
2021/07/28 08:00:39;;;;;;;11.30;5.20;;;;;;;28.23;52.94;99249.25;4975307;28;20133;-68
2021/07/28 08:03:08;;;;;;;14.25;5.50;;;;;;;28.04;53.43;99249.03;4975637;28;20496;-69
2021/07/28 08:05:38;;;;;;;11.70;4.70;;;;;;;28.19;53.96;99242.59;4975187;28;20101;-69
2021/07/28 08:08:07;;;;;;;10.98;5.30;;;;;;;27.95;53.97;99239.25;4974119;28;20076;-68
2021/07/28 08:10:36;;;;;;;12.50;5.47;;;;;;;28.03;53.95;99242.09;4975108;28;20093;-69
2021/07/28 08:13:10;;;;;;;11.10;5.53;;;;;;;27.88;54.06;99233.66;4975506;28;20129;-68
2021/07/28 08:15:38;;;;;;;13.48;5.53;;;;;;;28.06;54.29;99239.25;4974965;28;20571;-69
2021/07/28 08:18:09;;;;;;;7.65;4.65;;;;;;;28.27;53.91;99240.16;4974999;28;20043;-69
2021/07/28 08:20:40;;;;;;;9.63;5.07;;;;;;;28.52;53.61;99239.84;4975075;28;20047;-69
2021/07/28 08:23:10;;;;;;;8.95;4.75;;;;;;;28.68;52.68;99242.94;4974866;28;20117;-69
2021/07/28 08:25:39;;;;;;;10.48;4.95;;;;;;;28.64;51.85;99238.88;4974927;28;20129;-68
2021/07/28 08:28:08;;;;;;;9.50;5.15;;;;;;;28.71;51.76;99239.22;4975270;28;20477;-69
2021/07/28 08:30:37;;;;;;;12.23;4.97;;;;;;;28.93;51.35;99234.69;4974893;28;20098;-69
2021/07/28 08:33:06;;;;;;;11.50;5.32;;;;;;;29.12;50.54;99240.09;4974595;28;20051;-70
2021/07/28 08:35:58;;;;;;;14.82;5.22;;;;;;;29.29;49.60;99235.22;4960960;28;20051;-69
2021/07/28 08:38:27;;;;;;;10.35;5.13;;;;;;;28.97;50.23;99241.34;4974865;28;20110;-69
2021/07/28 08:41:00;;;;;;;8.60;4.63;;;;;;;28.72;50.65;99241.72;4974750;28;20042;-68
2021/07/28 08:43:31;;;;;;;11.48;5.30;;;;;;;29.12;50.71;99237.47;4975056;28;20113;-69
2021/07/28 08:46:01;;;;;;;10.13;4.88;;;;;;;29.31;50.17;99230.66;4974706;28;20047;-69
2021/07/28 08:48:31;;;;;;;12.20;5.03;;;;;;;29.39;50.70;99241.38;4975565;28;20047;-69
2021/07/28 08:51:04;;;;;;;10.77;5.32;;;;;;;29.50;50.12;99228.97;4975014;28;20484;-69
2021/07/28 08:53:33;;;;;;;12.60;5.50;;;;;;;29.61;49.81;99228.06;4974840;28;20374;-69
2021/07/28 08:56:04;;;;;;;11.35;5.22;;;;;;;29.62;49.65;99232.34;4975148;28;20041;-68
2021/07/28 08:58:33;;;;;;;12.60;5.90;;;;;;;29.67;49.67;99225.72;4974774;28;20050;-69
2021/07/28 09:01:02;;;;;;;11.75;4.80;;;;;;;29.75;49.03;99227.69;4978983;28;20043;-68
2021/07/28 09:03:32;;;;;;;;;;;;;;;29.55;49.09;99225.94;4979326;28;20147;-69
2021/07/28 09:06:02;;;;;;;12.20;4.90;;;;;;;29.77;49.32;99223.16;4978495;28;19922;-69
2021/07/28 09:08:33;;;;;;;12.63;5.53;;;;;;;30.08;48.66;99224.78;4979085;28;20485;-69
2021/07/28 09:11:03;;;;;;;15.18;5.38;;;;;;;30.16;48.51;99227.53;4978316;28;20053;-69
2021/07/28 09:13:34;;;;;;;11.27;4.78;;;;;;;30.27;48.58;99227.44;4978404;28;20061;-69
2021/07/28 09:16:05;;;;;;;10.93;5.50;;;;;;;30.27;47.51;99229.25;4978544;28;20035;-69
2021/07/28 09:18:37;;;;;;;13.40;5.15;;;;;;;30.37;46.97;99225.69;4978200;28;20101;-69
2021/07/28 09:21:25;;;;;;;9.68;5.25;;;;;;;30.54;47.79;99233.88;4978210;28;20113;-69
2021/07/28 09:24:06;;;;;;;10.70;5.13;;;;;;;30.59;46.94;99214.06;4978145;28;20134;-69
2021/07/28 09:26:41;;;;;;;12.13;4.90;;;;;;;30.64;46.92;99216.28;4978189;28;20039;-69
2021/07/28 09:29:12;;;;;;;15.73;5.60;;;;;;;30.82;46.94;99219.84;4978123;28;20400;-69
2021/07/28 09:31:43;;;;;;;9.55;5.15;;;;;;;31.09;46.89;99214.72;4977971;28;20051;-69
2021/07/28 09:34:34;;;;;;;10.13;4.88;;;;;;;31.03;46.51;99223.19;4978330;28;20086;-69
2021/07/28 09:37:10;;;;;;;8.90;4.75;;;;;;;30.91;46.28;99216.41;4977935;28;20047;-68
2021/07/28 09:39:40;;;;;;;12.63;5.15;;;;;;;30.98;45.89;99220.97;4978309;28;20050;-68
2021/07/28 09:42:11;;;;;;;10.25;4.90;;;;;;;30.97;45.66;99213.22;4977914;28;20061;-68
2021/07/28 09:44:42;;;;;;;16.05;5.28;;;;;;;31.10;45.85;99205.81;4977818;28;20489;-69
2021/07/28 09:47:13;;;;;;;9.18;5.82;;;;;;;31.01;45.19;99210.16;4978143;28;20065;-69
2021/07/28 09:49:43;;;;;;;10.60;5.95;;;;;;;30.68;45.54;99217.66;4978373;28;20051;-68
2021/07/28 09:52:21;;;;;;;10.68;5.20;;;;;;;30.60;46.24;99212.22;4977961;28;20062;-68
2021/07/28 09:54:51;;;;;;;11.23;5.75;;;;;;;30.88;46.10;99199.03;4977691;28;20050;-69
2021/07/28 09:57:21;;;;;;;14.05;5.90;;;;;;;31.14;46.08;99204.59;4977453;28;20097;-69
2021/07/28 09:59:53;;;;;;;9.65;5.05;;;;;;;31.33;45.50;99207.16;4977511;28;20101;-69
2021/07/28 10:02:45;;;;;;;11.80;5.50;;;;;;;31.31;45.01;99206.47;4963064;28;20409;-68
2021/07/28 10:05:18;;;;;;;13.00;5.20;;;;;;;31.09;45.45;99201.53;4977330;28;20057;-68
2021/07/28 10:07:51;;;;;;;12.25;5.20;;;;;;;31.05;45.11;99203.63;4977795;28;20043;-68
2021/07/28 10:10:20;;;;;;;10.77;4.85;;;;;;;30.84;45.01;99196.81;4977144;28;20043;-68
2021/07/28 10:12:50;;;;;;;9.45;4.78;;;;;;;31.04;44.68;99193.22;4977246;28;20059;-68
2021/07/28 10:15:21;;;;;;;9.40;5.45;;;;;;;30.99;45.10;99195.44;4976018;28;20057;-68
2021/07/28 10:17:52;;;;;;;13.23;7.05;;;;;;;31.31;45.86;99188.00;4977230;28;20222;-69
2021/07/28 10:20:21;;;;;;;14.80;5.75;;;;;;;31.53;44.96;99192.94;4977278;28;20134;-69
2021/07/28 10:22:51;;;;;;;;;;;;;;;31.47;44.78;99184.78;4977500;28;20085;-68
2021/07/28 10:25:21;;;;;;;15.02;6.40;;;;;;;31.54;44.62;99181.41;4977441;28;19957;-69
2021/07/28 10:27:53;;;;;;;9.30;5.32;;;;;;;31.92;44.28;99184.81;4977216;28;20039;-69
2021/07/28 10:30:23;;;;;;;10.52;5.25;;;;;;;31.86;44.22;99185.44;4977236;28;20125;-69
2021/07/28 10:32:52;;;;;;;13.75;5.70;;;;;;;31.97;44.78;99182.56;4976685;28;20071;-69
2021/07/28 10:35:27;;;;;;;12.73;5.53;;;;;;;32.05;44.11;99177.41;4977072;28;20460;-69
2021/07/28 10:37:59;;;;;;;10.15;5.63;;;;;;;31.68;43.63;99178.28;4976787;28;20520;-69
2021/07/28 10:40:51;;;;;;;11.18;5.03;;;;;;;31.40;43.57;99173.94;4976767;28;20042;-69
2021/07/28 10:43:20;;;;;;;12.60;5.75;;;;;;;31.33;44.45;99172.03;4972750;28;20047;-68
2021/07/28 10:45:59;;;;;;;10.32;5.18;;;;;;;31.54;43.88;99164.75;4977074;28;20047;-69
2021/07/28 10:48:56;;;;;;;12.70;5.80;;;;;;;31.73;43.97;99169.94;4976928;28;20109;-69
2021/07/28 10:51:45;;;;;;;10.73;5.43;;;;;;;31.75;43.80;99174.09;4976267;28;20041;-68
2021/07/28 10:54:16;;;;;;;10.23;5.28;;;;;;;31.99;43.55;99167.44;4976833;28;20062;-69
2021/07/28 10:57:06;;;;;;;8.98;5.50;;;;;;;32.14;43.56;99173.88;4976341;28;20050;-68
2021/07/28 10:59:41;;;;;;;9.10;5.32;;;;;;;31.97;43.61;99167.59;4976483;28;20050;-69
2021/07/28 11:02:10;;;;;;;15.10;7.00;;;;;;;32.05;42.48;99164.22;4976784;28;20097;-69
2021/07/28 11:04:39;;;;;;;10.75;4.80;;;;;;;32.13;42.77;99161.66;4976300;28;20105;-69
2021/07/28 11:07:08;;;;;;;10.13;5.43;;;;;;;32.21;42.86;99156.44;4976300;28;20052;-69
2021/07/28 11:09:39;;;;;;;12.35;4.93;;;;;;;32.23;42.71;99157.94;4976621;28;20126;-68
2021/07/28 11:12:11;;;;;;;11.82;5.65;;;;;;;32.23;42.09;99151.81;4976843;28;20489;-69
2021/07/28 11:14:43;;;;;;;12.10;5.68;;;;;;;32.27;42.47;99153.22;4976545;28;20066;-69
2021/07/28 11:17:14;;;;;;;10.10;5.60;;;;;;;32.42;42.66;99146.38;4976040;28;20050;-69
2021/07/28 11:19:47;;;;;;;14.15;6.00;;;;;;;32.56;43.28;99148.53;4976090;28;20051;-69
2021/07/28 11:22:16;;;;;;;11.90;5.85;;;;;;;32.65;44.07;99152.06;4975441;28;20059;-69
2021/07/28 11:24:56;;;;;;;11.55;5.68;;;;;;;32.74;43.37;99149.31;4976011;28;20043;-68
2021/07/28 11:27:26;;;;;;;12.10;5.47;;;;;;;32.56;42.58;99151.19;4975938;28;20441;-69
2021/07/28 11:30:10;;;;;;;11.85;5.93;;;;;;;32.53;42.81;99146.19;4958893;28;20122;-69
2021/07/28 11:32:40;;;;;;;15.05;5.32;;;;;;;32.51;43.25;99150.81;4975636;28;20042;-69
2021/07/28 11:35:10;;;;;;;10.00;5.55;;;;;;;32.56;42.74;99137.13;4975882;28;20059;-68
2021/07/28 11:37:39;;;;;;;10.15;5.70;;;;;;;32.27;41.87;99147.94;4975680;28;20046;-67
2021/07/28 11:40:11;;;;;;;12.32;5.40;;;;;;;32.18;42.58;99146.16;4975958;28;20560;-68
2021/07/28 11:42:40;;;;;;;12.38;5.75;;;;;;;32.53;43.20;99148.00;4975722;28;20062;-69
2021/07/28 11:45:10;;;;;;;9.00;5.30;;;;;;;32.59;42.58;99142.94;4975741;28;20066;-69
2021/07/28 11:47:39;;;;;;;11.23;5.93;;;;;;;32.69;41.69;99122.53;4975952;28;20047;-69
2021/07/28 11:50:08;;;;;;;;;;;;;;;32.73;41.57;99123.06;4975994;28;20117;-69
2021/07/28 11:52:47;;;;;;;12.57;5.90;;;;;;;32.54;41.99;99124.06;4975448;28;20347;-68